Amunt
Inicio > meteoXarxa
Fes-te'n soci

METEOXARXA

Catí
Ubicació l′Avellà
Comarca l′Alt Maestrat
Altitud (msnm) 931
Posició geogràfica 40° 30' 19.00" N, 00° 0' 1.00" W
Model Davis Vantage Pro2
Presa de dades
Font de les dades Meteocatí
Estadístiques. Resum
Data Temperatura (ºC) Humitat (%) Pressió (hPa) Vent (km/h) Precipit. (mm)
Mínima Mitjana Màxima Mínima Mitjana Màxima Mínima Mitjana Màxima Predom. Mitjana Ràfega màxima Total Dies de pluja
Mínima Mitjana Màxima Mínima Mitjana Màxima
Últimes dades diàries
20-02-2017 2,7     7,6     12,5 46,0 69,0 92,0 1.024,0 1.026,0 1.028,0 22,0 0,0  
19-02-2017 3,7     6,6     9,5 73,0 83,5 94,0 1.020,0 1.023,0 1.026,0 26,0 0,0  
18-02-2017 3,9     8,0     12,1 50,0 71,0 92,0 1.019,0 1.021,0 1.023,0 26,0 0,0  
17-02-2017 4,2     8,2     12,2 67,0 80,0 93,0 1.023,0 1.026,5 1.030,0 24,0 0,2  
16-02-2017 5,6     7,8     10,1 82,0 87,5 93,0 1.029,0 1.030,5 1.032,0 21,0 0,2  
15-02-2017 4,2     8,2     12,2 68,0 81,0 94,0 1.028,0 1.030,0 1.032,0 19,0 0,2  
14-02-2017 4,1     8,2     12,2 62,0 77,5 93,0 1.014,0 1.021,0 1.028,0 31,0 0,2  
13-02-2017 5,1     6,8     8,6 92,0 94,5 97,0 1.006,0 1.010,0 1.014,0 51,0 15,6  
12-02-2017 6,1     6,7     7,2 97,0 97,0 97,0 1.008,0 1.009,0 1.010,0 47,0 0,6  
11-02-2017 1,9     4,2     6,4 93,0 95,0 97,0 1.010,0 1.012,5 1.015,0 45,0 2,4  
10-02-2017 1,1     3,5     5,8 58,0 76,0 94,0 1.013,0 1.014,5 1.016,0 26,0 0,0  
09-02-2017 0,2     5,2     10,1 37,0 59,5 82,0 1.015,0 1.017,5 1.020,0 69,0 0,0  
08-02-2017 0,7     3,1     5,5 55,0 73,0 91,0 1.012,0 1.016,0 1.020,0 92,0 0,6  
07-02-2017 3,8     8,6     13,3 60,0 75,5 91,0 1.015,0 1.017,0 1.019,0 77,0 4,4  
06-02-2017 3,4     7,1     10,8 56,0 64,0 72,0 1.016,0 1.018,0 1.020,0 85,0 0,0  
05-02-2017 3,9     7,7     11,4 45,0 62,5 80,0 1.004,0 1.010,5 1.017,0 85,0 0,4  
04-02-2017 6,7     10,2     13,8 56,0 66,0 76,0 1.009,0 1.011,0 1.013,0 43,0 0,0  
03-02-2017 4,2     9,3     14,4 44,0 63,5 83,0 1.013,0 1.014,5 1.016,0 55,0 0,0  
02-02-2017 5,6     7,6     9,6 66,0 79,0 92,0 1.010,0 1.012,5 1.015,0 32,0 1,4  
01-02-2017 6,7     11,4     16,2 43,0 68,0 93,0 1.014,0 1.015,5 1.017,0 29,0 0,0  
31-01-2017 6,8     10,3     13,8 70,0 81,0 92,0 1.015,0 1.016,5 1.018,0 18,0 0,0  
30-01-2017 6,4     10,2     13,9 63,0 75,0 87,0 1.018,0 1.020,5 1.023,0 19,0 0,0  
29-01-2017 1,2     5,9     10,6 54,0 68,5 83,0 1.023,0 1.024,0 1.025,0 29,0 0,0  
28-01-2017 2,2     4,8     7,3 58,0 77,0 96,0 1.009,0 1.016,5 1.024,0 63,0 4,2  
27-01-2017 2,3     4,7     7,1 93,0 95,0 97,0 1.009,0 1.012,5 1.016,0 45,0 6,8  
26-01-2017 -1,6     1,6     4,9 79,0 87,0 95,0 1.015,0 1.016,0 1.017,0 22,0 0,2  
25-01-2017 0,2     5,0     9,8 25,0 57,5 90,0 1.016,0 1.018,0 1.020,0 61,0 0,0  
24-01-2017 1,5     4,6     7,7 46,0 62,0 78,0 1.018,0 1.020,0 1.022,0 53,0 0,0  
23-01-2017 0,7     2,5     4,4 74,0 84,0 94,0 1.016,0 1.017,5 1.019,0 55,0 0,0  
22-01-2017 0,8     1,8     2,8 84,0 89,0 94,0 1.015,0 1.016,0 1.017,0 59,0 3,0  
21-01-2017 0,3     1,7     3,1 83,0 90,0 97,0 1.016,0 1.017,5 1.019,0 55,0 17,4  
20-01-2017 0,4     1,6     2,7 94,0 95,5 97,0 1.013,0 1.016,5 1.020,0 51,0 51,6  
Dades del mes en curs (actualitzades fins l'últim dia disponible)
02/2017 0,2 3,9 6,7 7,3 5,5 10,7 16,2 37,0 76,2 97,0 1.004,0 1.017,8 1.032,0   92,0 26,2  
Últimes dades mensuals
01/2017 -6,7 1,7 8,1 5,0 1,1 8,4 17,0 47,0 71,0 95,5 1.012,5 1.019,5 1.028,5 98,0 89,6 10
12/2016 1,4 5,0 8,2 8,2 4,1 11,3 18,4 33,0 78,3 97,5 1.014,0 1.026,4 1.035,5 61,0 72,8 12
11/2016 1,5 5,9 12,1 9,4 7,3 12,9 21,6 60,0 75,0 97,0 1.001,0 1.014,8 1.029,5 77,0 63,6 12
10/2016 5,6 10,8 14,7 14,8 10,9 18,7 25,2 58,5 78,3 95,5 1.000,5 1.016,1 1.028,5 43,0 36,4 15
09/2016 9,6 14,4 23,1 19,2 15,9 24,0 35,2 31,5 66,8 83,5 1.010,5 1.016,9 1.026,5 66,0 36,8 9
08/2016 9,9 15,4 18,1 21,4 21,9 27,3 30,8 50,5 65,1 82,0 1.009,0 1.016,9 1.022,0 61,0 13,0 8
07/2016 8,8 16,3 20,5 22,0 23,3 27,7 31,7 40,5 57,8 76,5 1.011,0 1.015,7 1.020,5 59,0 11,4 8
06/2016 8,5 13,3 18,9 18,9 18,7 24,4 30,5 43,5 61,1 80,0 1.001,0 1.014,4 1.023,0 84,0 23,8 8
05/2016 1,4 8,5 14,4 13,0 9,8 17,5 23,2 46,0 70,7 98,0 1.004,5 1.013,4 1.021,5 77,0 76,8 9
04/2016 1,4 5,8 10,4 9,9 8,1 14,1 21,8 52,5 70,7 95,5 1.005,5 1.012,3 1.018,5 88,0 64,6 13
03/2016 -0,5 3,4 9,1 7,2 4,2 11,1 18,7 53,5 70,6 97,0 1.001,5 1.013,4 1.023,0 101,0 54,2 10
02/2016 -3,7 3,5 9,8 7,6 4,4 11,7 18,3 42,5 66,2 93,5 990,0 1.016,3 1.034,0 93,0 22,0 7
01/2016 -0,9 4,6 10,7 8,3 3,9 12,0 17,6 52,0 70,9 88,0 1.002,5 1.019,2 1.031,5 80,0 6,4 9
Dades de l'any en curs (actualitzades fins l'últim dia disponible)
2017 -6,7 2,5 8,1 5,9 1,1 9,3 17,0 25,0 73,0 97,0 1.004,0 1.018,8 1.032,0   98,0 115,8  
Últimes dades anuals